Valley Fork, West Virginia
Current Conditions -  °F | °C
As of 12:47 AM on Saturday 01 Nov 2014 (Local Time) from KCRW Reporting Station
Light Rain Light Rain  
Wind Chill: 36°   Ceiling: 1000
Heat Index: 41°   Visibility: 2mi
Dew Point: 39°   Wind: 7mph
Humidity: 93%   Direction: 310°NW
Pressure: 29.86"   Gusts: NA
Location:  38.52°N, 81.12°W
Report Text: KCRW 010447Z 31006KT 2SM -RA BR SCT002 BKN010 OVC032 05/04 A2986 RMK AO2 VLY FG P0002 T00500039
Loading
Personal Weather Stations






























Interactive Weather Map
Tropical Storm Tracking
New forecast layout! Learn more

10-Day Weather Forecast

Advertisements
Track Severe Weather on mobile